sensor_id;sensor_type;location;lat;lon;timestamp;P1;durP1;ratioP1;P2;durP2;ratioP2
76536;SDS011;65381;51.254;15.592;2022-12-07T00:01:41;2.00;;;1.13;;
76536;SDS011;65381;51.254;15.592;2022-12-07T00:04:10;1.30;;;0.90;;
76536;SDS011;65381;51.254;15.592;2022-12-07T00:06:43;2.08;;;0.90;;
76536;SDS011;65381;51.254;15.592;2022-12-07T00:12:25;1.58;;;0.90;;
76536;SDS011;65381;51.254;15.592;2022-12-07T00:14:52;1.80;;;0.85;;
76536;SDS011;65381;51.254;15.592;2022-12-07T00:17:20;1.55;;;1.20;;
76536;SDS011;65381;51.254;15.592;2022-12-07T00:19:48;1.52;;;0.90;;
76536;SDS011;65381;51.254;15.592;2022-12-07T00:22:15;1.70;;;1.00;;
76536;SDS011;65381;51.254;15.592;2022-12-07T00:24:43;2.92;;;1.02;;
76536;SDS011;65381;51.254;15.592;2022-12-07T00:27:10;1.48;;;0.80;;
76536;SDS011;65381;51.254;15.592;2022-12-07T00:29:38;1.63;;;0.85;;
76536;SDS011;65381;51.254;15.592;2022-12-07T00:32:05;2.17;;;0.90;;
76536;SDS011;65381;51.254;15.592;2022-12-07T00:34:32;1.52;;;0.90;;
76536;SDS011;65381;51.254;15.592;2022-12-07T00:37:00;2.20;;;1.05;;
76536;SDS011;65381;51.254;15.592;2022-12-07T00:39:27;1.15;;;0.70;;
76536;SDS011;65381;51.254;15.592;2022-12-07T00:41:55;1.40;;;0.63;;
76536;SDS011;65381;51.254;15.592;2022-12-07T00:44:22;1.38;;;0.60;;
76536;SDS011;65381;51.254;15.592;2022-12-07T00:46:50;1.50;;;0.75;;
76536;SDS011;65381;51.254;15.592;2022-12-07T00:49:17;1.08;;;0.68;;
76536;SDS011;65381;51.254;15.592;2022-12-07T00:51:44;1.90;;;0.60;;
76536;SDS011;65381;51.254;15.592;2022-12-07T00:54:15;1.40;;;0.68;;
76536;SDS011;65381;51.254;15.592;2022-12-07T00:56:43;1.52;;;0.80;;
76536;SDS011;65381;51.254;15.592;2022-12-07T00:59:11;1.05;;;0.57;;
76536;SDS011;65381;51.254;15.592;2022-12-07T01:01:41;1.42;;;0.93;;
76536;SDS011;65381;51.254;15.592;2022-12-07T01:04:09;1.88;;;0.73;;
76536;SDS011;65381;51.254;15.592;2022-12-07T01:06:37;1.27;;;0.65;;
76536;SDS011;65381;51.254;15.592;2022-12-07T01:09:05;1.10;;;0.68;;
76536;SDS011;65381;51.254;15.592;2022-12-07T01:11:33;1.05;;;0.57;;
76536;SDS011;65381;51.254;15.592;2022-12-07T01:14:00;1.98;;;0.50;;
76536;SDS011;65381;51.254;15.592;2022-12-07T01:16:29;1.20;;;0.60;;
76536;SDS011;65381;51.254;15.592;2022-12-07T01:18:58;1.20;;;0.70;;
76536;SDS011;65381;51.254;15.592;2022-12-07T01:21:27;0.90;;;0.50;;
76536;SDS011;65381;51.254;15.592;2022-12-07T01:23:56;1.00;;;0.52;;
76536;SDS011;65381;51.254;15.592;2022-12-07T01:26:24;1.23;;;0.40;;
76536;SDS011;65381;51.254;15.592;2022-12-07T01:28:53;1.25;;;0.65;;
76536;SDS011;65381;51.254;15.592;2022-12-07T01:31:23;1.30;;;0.60;;
76536;SDS011;65381;51.254;15.592;2022-12-07T01:33:53;1.00;;;0.52;;
76536;SDS011;65381;51.254;15.592;2022-12-07T01:36:29;1.65;;;0.68;;
76536;SDS011;65381;51.254;15.592;2022-12-07T01:39:02;0.80;;;0.50;;
76536;SDS011;65381;51.254;15.592;2022-12-07T01:41:33;0.55;;;0.40;;
76536;SDS011;65381;51.254;15.592;2022-12-07T01:44:21;1.42;;;0.77;;
76536;SDS011;65381;51.254;15.592;2022-12-07T01:46:51;0.80;;;0.40;;
76536;SDS011;65381;51.254;15.592;2022-12-07T01:49:33;1.90;;;0.60;;
76536;SDS011;65381;51.254;15.592;2022-12-07T01:52:10;0.95;;;0.40;;
76536;SDS011;65381;51.254;15.592;2022-12-07T01:54:43;0.85;;;0.40;;
76536;SDS011;65381;51.254;15.592;2022-12-07T01:57:13;2.08;;;0.50;;
76536;SDS011;65381;51.254;15.592;2022-12-07T01:59:42;1.50;;;0.50;;
76536;SDS011;65381;51.254;15.592;2022-12-07T02:02:13;1.00;;;0.40;;
76536;SDS011;65381;51.254;15.592;2022-12-07T02:05:08;1.10;;;0.32;;
76536;SDS011;65381;51.254;15.592;2022-12-07T02:07:36;0.80;;;0.30;;
76536;SDS011;65381;51.254;15.592;2022-12-07T02:10:15;1.20;;;0.50;;
76536;SDS011;65381;51.254;15.592;2022-12-07T02:12:44;2.05;;;0.80;;
76536;SDS011;65381;51.254;15.592;2022-12-07T02:15:15;1.10;;;0.40;;
76536;SDS011;65381;51.254;15.592;2022-12-07T02:20:47;1.25;;;0.65;;
76536;SDS011;65381;51.254;15.592;2022-12-07T02:31:44;2.28;;;0.55;;
76536;SDS011;65381;51.254;15.592;2022-12-07T02:34:31;0.93;;;0.40;;
76536;SDS011;65381;51.254;15.592;2022-12-07T02:37:58;2.10;;;0.47;;
76536;SDS011;65381;51.254;15.592;2022-12-07T02:42:47;0.70;;;0.30;;
76536;SDS011;65381;51.254;15.592;2022-12-07T02:45:18;1.38;;;0.30;;
76536;SDS011;65381;51.254;15.592;2022-12-07T02:47:51;0.63;;;0.30;;
76536;SDS011;65381;51.254;15.592;2022-12-07T02:52:48;1.45;;;0.40;;
76536;SDS011;65381;51.254;15.592;2022-12-07T02:55:17;1.20;;;0.43;;
76536;SDS011;65381;51.254;15.592;2022-12-07T02:57:57;0.70;;;0.30;;
76536;SDS011;65381;51.254;15.592;2022-12-07T03:00:52;0.77;;;0.30;;
76536;SDS011;65381;51.254;15.592;2022-12-07T03:03:30;0.65;;;0.30;;
76536;SDS011;65381;51.254;15.592;2022-12-07T03:06:04;0.73;;;0.40;;
76536;SDS011;65381;51.254;15.592;2022-12-07T03:11:48;0.40;;;0.22;;
76536;SDS011;65381;51.254;15.592;2022-12-07T03:14:28;1.15;;;0.40;;
76536;SDS011;65381;51.254;15.592;2022-12-07T03:17:08;0.47;;;0.28;;
76536;SDS011;65381;51.254;15.592;2022-12-07T03:19:46;1.00;;;0.45;;
76536;SDS011;65381;51.254;15.592;2022-12-07T03:22:15;0.82;;;0.30;;
76536;SDS011;65381;51.254;15.592;2022-12-07T03:24:47;0.80;;;0.40;;
76536;SDS011;65381;51.254;15.592;2022-12-07T03:27:20;1.08;;;0.40;;
76536;SDS011;65381;51.254;15.592;2022-12-07T03:29:53;0.85;;;0.30;;
76536;SDS011;65381;51.254;15.592;2022-12-07T03:32:31;0.80;;;0.50;;
76536;SDS011;65381;51.254;15.592;2022-12-07T03:38:17;0.85;;;0.52;;
76536;SDS011;65381;51.254;15.592;2022-12-07T03:41:11;0.98;;;0.30;;
76536;SDS011;65381;51.254;15.592;2022-12-07T03:43:43;1.67;;;0.30;;
76536;SDS011;65381;51.254;15.592;2022-12-07T03:51:36;1.27;;;0.60;;
76536;SDS011;65381;51.254;15.592;2022-12-07T03:54:24;0.80;;;0.40;;
76536;SDS011;65381;51.254;15.592;2022-12-07T03:56:59;0.88;;;0.47;;
76536;SDS011;65381;51.254;15.592;2022-12-07T03:59:28;0.95;;;0.60;;
76536;SDS011;65381;51.254;15.592;2022-12-07T04:01:57;0.90;;;0.40;;
76536;SDS011;65381;51.254;15.592;2022-12-07T04:04:30;0.85;;;0.50;;
76536;SDS011;65381;51.254;15.592;2022-12-07T04:06:58;0.95;;;0.30;;
76536;SDS011;65381;51.254;15.592;2022-12-07T04:09:26;1.08;;;0.55;;
76536;SDS011;65381;51.254;15.592;2022-12-07T04:11:53;1.08;;;0.60;;
76536;SDS011;65381;51.254;15.592;2022-12-07T04:14:21;0.90;;;0.50;;
76536;SDS011;65381;51.254;15.592;2022-12-07T04:16:52;2.60;;;0.50;;
76536;SDS011;65381;51.254;15.592;2022-12-07T04:19:26;0.85;;;0.50;;
76536;SDS011;65381;51.254;15.592;2022-12-07T04:21:57;0.98;;;0.57;;
76536;SDS011;65381;51.254;15.592;2022-12-07T04:24:26;1.70;;;0.52;;
76536;SDS011;65381;51.254;15.592;2022-12-07T04:26:53;1.58;;;0.65;;
76536;SDS011;65381;51.254;15.592;2022-12-07T04:29:21;2.20;;;0.60;;
76536;SDS011;65381;51.254;15.592;2022-12-07T04:31:48;1.00;;;0.52;;
76536;SDS011;65381;51.254;15.592;2022-12-07T04:34:17;1.45;;;0.90;;
76536;SDS011;65381;51.254;15.592;2022-12-07T04:36:45;0.90;;;0.50;;
76536;SDS011;65381;51.254;15.592;2022-12-07T04:39:18;0.88;;;0.55;;
76536;SDS011;65381;51.254;15.592;2022-12-07T04:41:50;1.00;;;0.60;;
76536;SDS011;65381;51.254;15.592;2022-12-07T04:44:19;2.60;;;0.60;;
76536;SDS011;65381;51.254;15.592;2022-12-07T04:46:47;1.58;;;0.80;;
76536;SDS011;65381;51.254;15.592;2022-12-07T04:49:15;0.82;;;0.60;;
76536;SDS011;65381;51.254;15.592;2022-12-07T04:51:42;5.75;;;0.82;;
76536;SDS011;65381;51.254;15.592;2022-12-07T04:54:11;1.30;;;0.60;;
76536;SDS011;65381;51.254;15.592;2022-12-07T04:56:39;1.85;;;0.70;;
76536;SDS011;65381;51.254;15.592;2022-12-07T04:59:07;4.15;;;0.50;;
76536;SDS011;65381;51.254;15.592;2022-12-07T05:01:34;1.35;;;0.52;;
76536;SDS011;65381;51.254;15.592;2022-12-07T05:04:02;0.90;;;0.65;;
76536;SDS011;65381;51.254;15.592;2022-12-07T05:06:29;0.82;;;0.50;;
76536;SDS011;65381;51.254;15.592;2022-12-07T05:08:57;1.20;;;0.63;;
76536;SDS011;65381;51.254;15.592;2022-12-07T05:11:24;1.08;;;0.60;;
76536;SDS011;65381;51.254;15.592;2022-12-07T05:14:13;1.35;;;0.88;;
76536;SDS011;65381;51.254;15.592;2022-12-07T05:16:46;0.60;;;0.40;;
76536;SDS011;65381;51.254;15.592;2022-12-07T05:19:16;1.48;;;0.70;;
76536;SDS011;65381;51.254;15.592;2022-12-07T05:21:45;1.30;;;0.57;;
76536;SDS011;65381;51.254;15.592;2022-12-07T05:24:13;0.88;;;0.60;;
76536;SDS011;65381;51.254;15.592;2022-12-07T05:26:43;1.92;;;0.45;;
76536;SDS011;65381;51.254;15.592;2022-12-07T05:29:12;2.00;;;0.70;;
76536;SDS011;65381;51.254;15.592;2022-12-07T05:31:41;1.15;;;0.70;;
76536;SDS011;65381;51.254;15.592;2022-12-07T05:34:09;1.30;;;0.80;;
76536;SDS011;65381;51.254;15.592;2022-12-07T05:36:36;1.30;;;0.70;;
76536;SDS011;65381;51.254;15.592;2022-12-07T05:39:04;1.70;;;0.88;;
76536;SDS011;65381;51.254;15.592;2022-12-07T05:41:32;1.75;;;0.70;;
76536;SDS011;65381;51.254;15.592;2022-12-07T05:44:13;1.50;;;0.80;;
76536;SDS011;65381;51.254;15.592;2022-12-07T05:46:41;1.00;;;0.50;;
76536;SDS011;65381;51.254;15.592;2022-12-07T05:49:09;1.60;;;0.70;;
76536;SDS011;65381;51.254;15.592;2022-12-07T05:51:36;1.35;;;0.60;;
76536;SDS011;65381;51.254;15.592;2022-12-07T05:54:04;2.97;;;1.00;;
76536;SDS011;65381;51.254;15.592;2022-12-07T05:56:31;2.28;;;0.90;;
76536;SDS011;65381;51.254;15.592;2022-12-07T05:58:59;2.38;;;1.00;;
76536;SDS011;65381;51.254;15.592;2022-12-07T06:01:40;1.17;;;0.82;;
76536;SDS011;65381;51.254;15.592;2022-12-07T06:04:08;4.32;;;0.90;;
76536;SDS011;65381;51.254;15.592;2022-12-07T06:06:35;2.28;;;0.90;;
76536;SDS011;65381;51.254;15.592;2022-12-07T06:09:03;2.10;;;1.05;;
76536;SDS011;65381;51.254;15.592;2022-12-07T06:11:31;6.50;;;1.35;;
76536;SDS011;65381;51.254;15.592;2022-12-07T06:14:12;2.15;;;0.90;;
76536;SDS011;65381;51.254;15.592;2022-12-07T06:16:40;2.42;;;0.98;;
76536;SDS011;65381;51.254;15.592;2022-12-07T06:19:07;4.57;;;0.90;;
76536;SDS011;65381;51.254;15.592;2022-12-07T06:21:34;2.83;;;1.00;;
76536;SDS011;65381;51.254;15.592;2022-12-07T06:24:02;6.38;;;2.10;;
76536;SDS011;65381;51.254;15.592;2022-12-07T06:26:30;5.80;;;2.50;;
76536;SDS011;65381;51.254;15.592;2022-12-07T06:28:57;5.03;;;2.67;;
76536;SDS011;65381;51.254;15.592;2022-12-07T06:31:25;6.43;;;2.58;;
76536;SDS011;65381;51.254;15.592;2022-12-07T06:34:00;7.15;;;3.00;;
76536;SDS011;65381;51.254;15.592;2022-12-07T06:36:31;8.63;;;2.80;;
76536;SDS011;65381;51.254;15.592;2022-12-07T06:38:59;5.50;;;2.70;;
76536;SDS011;65381;51.254;15.592;2022-12-07T06:41:26;8.57;;;3.28;;
76536;SDS011;65381;51.254;15.592;2022-12-07T06:43:54;7.43;;;3.95;;
76536;SDS011;65381;51.254;15.592;2022-12-07T06:46:22;6.72;;;3.10;;
76536;SDS011;65381;51.254;15.592;2022-12-07T06:48:50;7.43;;;3.13;;
76536;SDS011;65381;51.254;15.592;2022-12-07T06:51:17;8.70;;;3.10;;
76536;SDS011;65381;51.254;15.592;2022-12-07T06:53:45;4.63;;;3.00;;
76536;SDS011;65381;51.254;15.592;2022-12-07T06:56:13;7.97;;;3.00;;
76536;SDS011;65381;51.254;15.592;2022-12-07T06:58:40;9.00;;;3.15;;
76536;SDS011;65381;51.254;15.592;2022-12-07T07:01:15;8.18;;;3.00;;
76536;SDS011;65381;51.254;15.592;2022-12-07T07:03:45;5.20;;;3.08;;
76536;SDS011;65381;51.254;15.592;2022-12-07T07:06:13;10.95;;;3.08;;
76536;SDS011;65381;51.254;15.592;2022-12-07T07:08:41;6.63;;;3.40;;
76536;SDS011;65381;51.254;15.592;2022-12-07T07:11:08;8.05;;;3.28;;
76536;SDS011;65381;51.254;15.592;2022-12-07T07:13:36;5.32;;;3.10;;
76536;SDS011;65381;51.254;15.592;2022-12-07T07:16:05;9.25;;;3.22;;
76536;SDS011;65381;51.254;15.592;2022-12-07T07:18:33;7.93;;;3.20;;
76536;SDS011;65381;51.254;15.592;2022-12-07T07:21:01;9.48;;;3.70;;
76536;SDS011;65381;51.254;15.592;2022-12-07T07:23:29;6.80;;;3.60;;
76536;SDS011;65381;51.254;15.592;2022-12-07T07:25:57;8.00;;;3.50;;
76536;SDS011;65381;51.254;15.592;2022-12-07T07:28:24;7.95;;;4.03;;
76536;SDS011;65381;51.254;15.592;2022-12-07T07:30:53;8.32;;;3.83;;
76536;SDS011;65381;51.254;15.592;2022-12-07T07:33:20;8.25;;;3.60;;
76536;SDS011;65381;51.254;15.592;2022-12-07T07:35:48;9.85;;;3.83;;
76536;SDS011;65381;51.254;15.592;2022-12-07T07:38:15;8.45;;;3.53;;
76536;SDS011;65381;51.254;15.592;2022-12-07T07:40:43;7.95;;;3.75;;
76536;SDS011;65381;51.254;15.592;2022-12-07T07:43:11;10.18;;;4.38;;
76536;SDS011;65381;51.254;15.592;2022-12-07T07:45:38;6.82;;;3.08;;
76536;SDS011;65381;51.254;15.592;2022-12-07T07:48:06;5.57;;;3.17;;
76536;SDS011;65381;51.254;15.592;2022-12-07T07:50:33;6.93;;;3.03;;
76536;SDS011;65381;51.254;15.592;2022-12-07T07:53:01;5.32;;;2.88;;
76536;SDS011;65381;51.254;15.592;2022-12-07T07:55:28;6.43;;;3.40;;
76536;SDS011;65381;51.254;15.592;2022-12-07T07:57:56;8.40;;;3.08;;
76536;SDS011;65381;51.254;15.592;2022-12-07T08:00:23;8.30;;;3.33;;
76536;SDS011;65381;51.254;15.592;2022-12-07T08:02:51;7.00;;;3.08;;
76536;SDS011;65381;51.254;15.592;2022-12-07T08:05:18;5.80;;;3.50;;
76536;SDS011;65381;51.254;15.592;2022-12-07T08:07:46;9.57;;;3.78;;
76536;SDS011;65381;51.254;15.592;2022-12-07T08:10:14;7.70;;;3.63;;
76536;SDS011;65381;51.254;15.592;2022-12-07T08:12:43;8.25;;;4.55;;
76536;SDS011;65381;51.254;15.592;2022-12-07T08:15:25;6.75;;;3.90;;
76536;SDS011;65381;51.254;15.592;2022-12-07T08:17:54;8.18;;;4.40;;
76536;SDS011;65381;51.254;15.592;2022-12-07T08:20:21;10.85;;;4.82;;
76536;SDS011;65381;51.254;15.592;2022-12-07T08:22:49;10.80;;;5.55;;
76536;SDS011;65381;51.254;15.592;2022-12-07T08:25:17;11.02;;;5.95;;
76536;SDS011;65381;51.254;15.592;2022-12-07T08:27:45;12.10;;;5.03;;
76536;SDS011;65381;51.254;15.592;2022-12-07T08:30:12;10.10;;;4.60;;
76536;SDS011;65381;51.254;15.592;2022-12-07T08:32:40;8.82;;;4.93;;
76536;SDS011;65381;51.254;15.592;2022-12-07T08:35:08;11.20;;;4.68;;
76536;SDS011;65381;51.254;15.592;2022-12-07T08:37:35;7.63;;;4.30;;
76536;SDS011;65381;51.254;15.592;2022-12-07T08:40:04;9.43;;;4.38;;
76536;SDS011;65381;51.254;15.592;2022-12-07T08:42:32;8.93;;;4.50;;
76536;SDS011;65381;51.254;15.592;2022-12-07T08:45:07;12.98;;;6.00;;
76536;SDS011;65381;51.254;15.592;2022-12-07T08:50:06;18.80;;;6.80;;
76536;SDS011;65381;51.254;15.592;2022-12-07T08:52:36;17.98;;;7.88;;
76536;SDS011;65381;51.254;15.592;2022-12-07T08:55:06;17.65;;;7.00;;
76536;SDS011;65381;51.254;15.592;2022-12-07T08:57:35;17.15;;;8.20;;
76536;SDS011;65381;51.254;15.592;2022-12-07T09:00:04;17.13;;;7.93;;
76536;SDS011;65381;51.254;15.592;2022-12-07T09:02:32;18.90;;;8.25;;
76536;SDS011;65381;51.254;15.592;2022-12-07T09:05:00;14.68;;;7.00;;
76536;SDS011;65381;51.254;15.592;2022-12-07T09:07:27;17.70;;;7.78;;
76536;SDS011;65381;51.254;15.592;2022-12-07T09:09:57;18.38;;;8.35;;
76536;SDS011;65381;51.254;15.592;2022-12-07T09:12:25;17.25;;;8.50;;
76536;SDS011;65381;51.254;15.592;2022-12-07T09:14:52;13.95;;;6.97;;
76536;SDS011;65381;51.254;15.592;2022-12-07T09:17:20;13.25;;;7.30;;
76536;SDS011;65381;51.254;15.592;2022-12-07T09:19:48;17.25;;;7.50;;
76536;SDS011;65381;51.254;15.592;2022-12-07T09:22:15;15.50;;;7.30;;
76536;SDS011;65381;51.254;15.592;2022-12-07T09:24:43;14.90;;;6.05;;
76536;SDS011;65381;51.254;15.592;2022-12-07T09:27:13;14.27;;;6.03;;
76536;SDS011;65381;51.254;15.592;2022-12-07T09:29:40;18.23;;;6.95;;
76536;SDS011;65381;51.254;15.592;2022-12-07T09:32:07;16.23;;;5.80;;
76536;SDS011;65381;51.254;15.592;2022-12-07T09:34:37;10.98;;;5.40;;
76536;SDS011;65381;51.254;15.592;2022-12-07T09:37:06;14.57;;;6.45;;
76536;SDS011;65381;51.254;15.592;2022-12-07T09:39:34;14.68;;;5.60;;
76536;SDS011;65381;51.254;15.592;2022-12-07T09:42:04;12.10;;;5.32;;
76536;SDS011;65381;51.254;15.592;2022-12-07T09:44:34;12.38;;;5.35;;
76536;SDS011;65381;51.254;15.592;2022-12-07T09:47:02;10.30;;;5.40;;
76536;SDS011;65381;51.254;15.592;2022-12-07T09:49:31;16.15;;;5.35;;
76536;SDS011;65381;51.254;15.592;2022-12-07T09:54:36;11.77;;;5.15;;
76536;SDS011;65381;51.254;15.592;2022-12-07T09:57:08;10.75;;;4.80;;
76536;SDS011;65381;51.254;15.592;2022-12-07T10:02:21;7.90;;;4.07;;
76536;SDS011;65381;51.254;15.592;2022-12-07T10:04:54;15.05;;;4.82;;
76536;SDS011;65381;51.254;15.592;2022-12-07T10:07:24;8.43;;;4.35;;
76536;SDS011;65381;51.254;15.592;2022-12-07T10:09:52;11.27;;;4.38;;
76536;SDS011;65381;51.254;15.592;2022-12-07T10:12:19;13.40;;;4.88;;
76536;SDS011;65381;51.254;15.592;2022-12-07T10:15:20;10.75;;;4.90;;
76536;SDS011;65381;51.254;15.592;2022-12-07T10:17:47;6.72;;;3.53;;
76536;SDS011;65381;51.254;15.592;2022-12-07T10:20:18;8.15;;;4.03;;
76536;SDS011;65381;51.254;15.592;2022-12-07T10:25:26;9.20;;;4.55;;
76536;SDS011;65381;51.254;15.592;2022-12-07T10:30:30;9.35;;;3.97;;
76536;SDS011;65381;51.254;15.592;2022-12-07T10:32:59;8.82;;;4.13;;
76536;SDS011;65381;51.254;15.592;2022-12-07T10:35:28;8.70;;;4.05;;
76536;SDS011;65381;51.254;15.592;2022-12-07T10:37:58;7.82;;;3.45;;
76536;SDS011;65381;51.254;15.592;2022-12-07T10:40:28;6.38;;;2.88;;
76536;SDS011;65381;51.254;15.592;2022-12-07T10:51:11;6.68;;;3.00;;
76536;SDS011;65381;51.254;15.592;2022-12-07T10:53:57;7.95;;;3.22;;
76536;SDS011;65381;51.254;15.592;2022-12-07T10:59:37;7.00;;;3.53;;
76536;SDS011;65381;51.254;15.592;2022-12-07T11:04:59;8.07;;;3.33;;
76536;SDS011;65381;51.254;15.592;2022-12-07T11:07:38;6.63;;;3.03;;
76536;SDS011;65381;51.254;15.592;2022-12-07T11:10:12;6.47;;;3.28;;
76536;SDS011;65381;51.254;15.592;2022-12-07T11:18:11;6.82;;;2.55;;
76536;SDS011;65381;51.254;15.592;2022-12-07T11:26:04;11.82;;;2.67;;
76536;SDS011;65381;51.254;15.592;2022-12-07T11:31:30;23.48;;;3.60;;
76536;SDS011;65381;51.254;15.592;2022-12-07T11:37:00;13.38;;;3.88;;
76536;SDS011;65381;51.254;15.592;2022-12-07T11:39:35;14.82;;;3.85;;
76536;SDS011;65381;51.254;15.592;2022-12-07T11:42:07;8.20;;;3.00;;
76536;SDS011;65381;51.254;15.592;2022-12-07T11:47:35;10.65;;;2.92;;
76536;SDS011;65381;51.254;15.592;2022-12-07T11:52:57;8.25;;;3.00;;
76536;SDS011;65381;51.254;15.592;2022-12-07T11:58:30;14.77;;;3.03;;
76536;SDS011;65381;51.254;15.592;2022-12-07T12:01:22;5.63;;;2.60;;
76536;SDS011;65381;51.254;15.592;2022-12-07T12:04:07;7.90;;;2.38;;
76536;SDS011;65381;51.254;15.592;2022-12-07T12:06:50;7.18;;;2.67;;
76536;SDS011;65381;51.254;15.592;2022-12-07T12:20:50;5.93;;;2.55;;
76536;SDS011;65381;51.254;15.592;2022-12-07T12:26:12;4.32;;;2.38;;
76536;SDS011;65381;51.254;15.592;2022-12-07T12:28:50;5.35;;;2.28;;
76536;SDS011;65381;51.254;15.592;2022-12-07T12:33:55;5.70;;;2.05;;
76536;SDS011;65381;51.254;15.592;2022-12-07T12:46:51;5.60;;;2.20;;
76536;SDS011;65381;51.254;15.592;2022-12-07T12:51:51;7.47;;;2.10;;
76536;SDS011;65381;51.254;15.592;2022-12-07T12:57:36;3.72;;;2.03;;
76536;SDS011;65381;51.254;15.592;2022-12-07T13:03:04;4.65;;;1.77;;
76536;SDS011;65381;51.254;15.592;2022-12-07T13:05:38;4.18;;;2.20;;
76536;SDS011;65381;51.254;15.592;2022-12-07T13:11:15;4.50;;;1.90;;
76536;SDS011;65381;51.254;15.592;2022-12-07T13:13:52;5.80;;;2.25;;
76536;SDS011;65381;51.254;15.592;2022-12-07T13:16:35;4.22;;;2.00;;
76536;SDS011;65381;51.254;15.592;2022-12-07T13:19:26;5.18;;;2.25;;
76536;SDS011;65381;51.254;15.592;2022-12-07T13:22:28;3.85;;;2.03;;
76536;SDS011;65381;51.254;15.592;2022-12-07T13:25:03;6.03;;;2.13;;
76536;SDS011;65381;51.254;15.592;2022-12-07T13:27:37;6.88;;;2.10;;
76536;SDS011;65381;51.254;15.592;2022-12-07T13:30:14;5.72;;;1.98;;
76536;SDS011;65381;51.254;15.592;2022-12-07T13:32:43;3.85;;;2.22;;
76536;SDS011;65381;51.254;15.592;2022-12-07T13:35:28;5.60;;;1.92;;
76536;SDS011;65381;51.254;15.592;2022-12-07T13:38:05;4.55;;;1.60;;
76536;SDS011;65381;51.254;15.592;2022-12-07T13:40:58;4.45;;;2.15;;
76536;SDS011;65381;51.254;15.592;2022-12-07T13:43:27;4.20;;;2.10;;
76536;SDS011;65381;51.254;15.592;2022-12-07T13:45:58;4.03;;;1.98;;
76536;SDS011;65381;51.254;15.592;2022-12-07T13:48:30;4.13;;;2.15;;
76536;SDS011;65381;51.254;15.592;2022-12-07T13:51:00;3.95;;;2.10;;
76536;SDS011;65381;51.254;15.592;2022-12-07T13:53:29;5.30;;;2.15;;
76536;SDS011;65381;51.254;15.592;2022-12-07T13:55:58;6.28;;;2.00;;
76536;SDS011;65381;51.254;15.592;2022-12-07T13:58:26;3.97;;;1.92;;
76536;SDS011;65381;51.254;15.592;2022-12-07T14:00:57;4.60;;;1.90;;
76536;SDS011;65381;51.254;15.592;2022-12-07T14:03:30;4.50;;;1.63;;
76536;SDS011;65381;51.254;15.592;2022-12-07T14:06:13;4.07;;;2.33;;
76536;SDS011;65381;51.254;15.592;2022-12-07T14:11:50;3.58;;;1.92;;
76536;SDS011;65381;51.254;15.592;2022-12-07T14:14:23;4.18;;;1.88;;
76536;SDS011;65381;51.254;15.592;2022-12-07T14:17:12;4.25;;;1.98;;
76536;SDS011;65381;51.254;15.592;2022-12-07T14:19:56;3.05;;;1.83;;
76536;SDS011;65381;51.254;15.592;2022-12-07T14:22:35;3.58;;;1.98;;
76536;SDS011;65381;51.254;15.592;2022-12-07T14:30:16;4.18;;;2.10;;
76536;SDS011;65381;51.254;15.592;2022-12-07T14:32:45;3.22;;;1.83;;
76536;SDS011;65381;51.254;15.592;2022-12-07T14:35:16;3.92;;;2.42;;
76536;SDS011;65381;51.254;15.592;2022-12-07T14:37:46;4.40;;;1.80;;
76536;SDS011;65381;51.254;15.592;2022-12-07T14:40:18;3.50;;;2.10;;
76536;SDS011;65381;51.254;15.592;2022-12-07T14:42:48;3.97;;;2.30;;
76536;SDS011;65381;51.254;15.592;2022-12-07T14:45:30;3.80;;;1.90;;
76536;SDS011;65381;51.254;15.592;2022-12-07T14:47:58;3.67;;;1.80;;
76536;SDS011;65381;51.254;15.592;2022-12-07T14:50:48;4.90;;;2.25;;
76536;SDS011;65381;51.254;15.592;2022-12-07T14:53:40;4.70;;;2.08;;
76536;SDS011;65381;51.254;15.592;2022-12-07T14:56:15;4.50;;;2.20;;
76536;SDS011;65381;51.254;15.592;2022-12-07T14:58:43;3.42;;;2.15;;
76536;SDS011;65381;51.254;15.592;2022-12-07T15:01:11;4.70;;;2.03;;
76536;SDS011;65381;51.254;15.592;2022-12-07T15:03:38;4.93;;;2.00;;
76536;SDS011;65381;51.254;15.592;2022-12-07T15:06:06;5.70;;;2.15;;
76536;SDS011;65381;51.254;15.592;2022-12-07T15:08:34;4.40;;;2.10;;
76536;SDS011;65381;51.254;15.592;2022-12-07T15:11:02;5.55;;;2.15;;
76536;SDS011;65381;51.254;15.592;2022-12-07T15:13:29;3.97;;;2.17;;
76536;SDS011;65381;51.254;15.592;2022-12-07T15:16:11;3.70;;;2.20;;
76536;SDS011;65381;51.254;15.592;2022-12-07T15:18:43;6.35;;;2.75;;
76536;SDS011;65381;51.254;15.592;2022-12-07T15:21:31;5.13;;;2.38;;
76536;SDS011;65381;51.254;15.592;2022-12-07T15:23:58;6.65;;;3.35;;
76536;SDS011;65381;51.254;15.592;2022-12-07T15:26:26;3.97;;;2.63;;
76536;SDS011;65381;51.254;15.592;2022-12-07T15:28:54;5.97;;;2.88;;
76536;SDS011;65381;51.254;15.592;2022-12-07T15:31:21;7.25;;;3.10;;
76536;SDS011;65381;51.254;15.592;2022-12-07T15:34:09;5.72;;;3.20;;
76536;SDS011;65381;51.254;15.592;2022-12-07T15:36:36;6.20;;;3.15;;
76536;SDS011;65381;51.254;15.592;2022-12-07T15:39:04;4.55;;;3.05;;
76536;SDS011;65381;51.254;15.592;2022-12-07T15:41:41;6.40;;;3.08;;
76536;SDS011;65381;51.254;15.592;2022-12-07T15:44:12;7.00;;;3.35;;
76536;SDS011;65381;51.254;15.592;2022-12-07T15:46:57;6.45;;;3.10;;
76536;SDS011;65381;51.254;15.592;2022-12-07T15:49:24;6.72;;;2.65;;
76536;SDS011;65381;51.254;15.592;2022-12-07T15:51:52;7.22;;;3.50;;
76536;SDS011;65381;51.254;15.592;2022-12-07T15:54:21;9.35;;;3.00;;
76536;SDS011;65381;51.254;15.592;2022-12-07T15:56:53;4.93;;;2.75;;
76536;SDS011;65381;51.254;15.592;2022-12-07T15:59:22;4.50;;;2.50;;
76536;SDS011;65381;51.254;15.592;2022-12-07T16:01:50;6.78;;;2.67;;
76536;SDS011;65381;51.254;15.592;2022-12-07T16:04:18;6.28;;;3.20;;
76536;SDS011;65381;51.254;15.592;2022-12-07T16:06:45;4.53;;;2.83;;
76536;SDS011;65381;51.254;15.592;2022-12-07T16:09:13;7.85;;;2.95;;
76536;SDS011;65381;51.254;15.592;2022-12-07T16:11:41;5.03;;;2.72;;
76536;SDS011;65381;51.254;15.592;2022-12-07T16:14:09;4.95;;;2.72;;
76536;SDS011;65381;51.254;15.592;2022-12-07T16:16:36;9.63;;;3.40;;
76536;SDS011;65381;51.254;15.592;2022-12-07T16:19:04;7.40;;;3.35;;
76536;SDS011;65381;51.254;15.592;2022-12-07T16:21:31;6.50;;;2.90;;
76536;SDS011;65381;51.254;15.592;2022-12-07T16:24:00;7.90;;;3.33;;
76536;SDS011;65381;51.254;15.592;2022-12-07T16:26:28;10.57;;;4.10;;
76536;SDS011;65381;51.254;15.592;2022-12-07T16:28:56;8.05;;;3.53;;
76536;SDS011;65381;51.254;15.592;2022-12-07T16:31:25;10.65;;;4.40;;
76536;SDS011;65381;51.254;15.592;2022-12-07T16:33:56;7.22;;;3.95;;
76536;SDS011;65381;51.254;15.592;2022-12-07T16:36:25;8.50;;;4.10;;
76536;SDS011;65381;51.254;15.592;2022-12-07T16:39:14;6.70;;;3.58;;
76536;SDS011;65381;51.254;15.592;2022-12-07T16:41:42;7.10;;;3.50;;
76536;SDS011;65381;51.254;15.592;2022-12-07T16:44:10;7.55;;;3.50;;
76536;SDS011;65381;51.254;15.592;2022-12-07T16:46:39;9.00;;;3.50;;
76536;SDS011;65381;51.254;15.592;2022-12-07T16:49:12;7.40;;;3.58;;
76536;SDS011;65381;51.254;15.592;2022-12-07T16:51:41;8.90;;;4.10;;
76536;SDS011;65381;51.254;15.592;2022-12-07T16:54:12;7.90;;;3.30;;
76536;SDS011;65381;51.254;15.592;2022-12-07T16:56:40;9.85;;;3.30;;
76536;SDS011;65381;51.254;15.592;2022-12-07T16:59:08;7.47;;;3.45;;
76536;SDS011;65381;51.254;15.592;2022-12-07T17:01:35;7.05;;;2.97;;
76536;SDS011;65381;51.254;15.592;2022-12-07T17:04:04;7.90;;;3.78;;
76536;SDS011;65381;51.254;15.592;2022-12-07T17:06:32;7.53;;;3.78;;
76536;SDS011;65381;51.254;15.592;2022-12-07T17:08:59;7.25;;;3.40;;